createdAt,value
2018-01-23T00:00:30.811Z,26.23
2018-01-23T00:02:58.989Z,24.50
2018-01-23T00:05:27.955Z,22.20
2018-01-23T00:07:56.125Z,24.60
2018-01-23T00:10:24.295Z,24.30
2018-01-23T00:12:52.473Z,26.07
2018-01-23T00:15:20.648Z,25.17
2018-01-23T00:17:48.870Z,26.30
2018-01-23T00:20:17.805Z,20.07
2018-01-23T00:22:45.992Z,35.33
2018-01-23T00:25:14.180Z,26.30
2018-01-23T00:27:42.329Z,41.53
2018-01-23T00:30:10.490Z,34.60
2018-01-23T00:32:38.655Z,33.50
2018-01-23T00:35:06.822Z,28.13
2018-01-23T00:37:35.027Z,28.13
2018-01-23T00:40:03.243Z,23.70
2018-01-23T00:42:32.178Z,26.80
2018-01-23T00:45:00.348Z,26.20
2018-01-23T00:47:28.489Z,33.23
2018-01-23T00:49:57.428Z,26.50
2018-01-23T00:52:25.606Z,25.27
2018-01-23T00:54:53.753Z,25.73
2018-01-23T00:57:21.902Z,25.80
2018-01-23T00:59:50.839Z,23.10
2018-01-23T01:02:18.979Z,30.50
2018-01-23T01:04:47.948Z,23.27
2018-01-23T01:07:16.104Z,25.30
2018-01-23T01:09:44.294Z,22.83
2018-01-23T01:12:12.526Z,24.37
2018-01-23T01:14:40.694Z,25.33
2018-01-23T01:17:08.894Z,24.50
2018-01-23T01:19:37.077Z,24.67
2018-01-23T01:22:05.258Z,23.00
2018-01-23T01:24:33.453Z,25.77
2018-01-23T01:27:02.441Z,26.43
2018-01-23T01:29:31.499Z,27.30
2018-01-23T01:31:59.743Z,23.97
2018-01-23T01:34:27.926Z,21.60
2018-01-23T01:36:56.101Z,29.17
2018-01-23T01:39:24.290Z,22.97
2018-01-23T01:41:52.456Z,24.00
2018-01-23T01:44:20.635Z,25.70
2018-01-23T01:46:48.859Z,25.17
2018-01-23T01:49:17.041Z,26.37
2018-01-23T01:51:45.215Z,26.83
2018-01-23T01:54:13.397Z,27.30
2018-01-23T01:56:42.321Z,22.73
2018-01-23T01:59:10.512Z,23.90
2018-01-23T02:01:38.718Z,23.30
2018-01-23T02:04:06.949Z,23.47
2018-01-23T02:06:35.193Z,21.60
2018-01-23T02:09:04.233Z,23.50
2018-01-23T02:11:32.666Z,22.90
2018-01-23T02:14:01.612Z,24.00
2018-01-23T02:16:29.782Z,27.10
2018-01-23T02:18:57.972Z,23.10
2018-01-23T02:21:26.154Z,21.33
2018-01-23T02:23:54.315Z,24.10
2018-01-23T02:26:22.494Z,25.77
2018-01-23T02:28:51.444Z,27.93
2018-01-23T02:31:19.650Z,31.30
2018-01-23T02:33:47.861Z,28.30
2018-01-23T02:36:16.065Z,25.63
2018-01-23T02:38:44.230Z,31.00
2018-01-23T02:41:13.180Z,34.10
2018-01-23T02:43:41.346Z,36.40
2018-01-23T02:46:09.538Z,36.93
2018-01-23T02:48:37.734Z,36.07
2018-01-23T02:51:05.900Z,33.40
2018-01-23T02:53:34.070Z,36.50
2018-01-23T02:56:02.230Z,33.63
2018-01-23T02:58:30.414Z,34.60
2018-01-23T03:00:58.654Z,31.03
2018-01-23T03:03:26.828Z,33.30
2018-01-23T03:05:54.997Z,32.83
2018-01-23T03:08:23.204Z,35.03
2018-01-23T03:10:52.166Z,33.93
2018-01-23T03:13:20.395Z,33.90
2018-01-23T03:15:48.580Z,25.70
2018-01-23T03:18:17.520Z,23.50
2018-01-23T03:20:45.711Z,27.37
2018-01-23T03:23:14.674Z,24.37
2018-01-23T03:25:42.878Z,25.27
2018-01-23T03:28:11.053Z,27.03
2018-01-23T03:30:39.217Z,22.97
2018-01-23T03:33:07.413Z,29.70
2018-01-23T03:35:35.597Z,28.77
2018-01-23T03:38:03.772Z,27.83
2018-01-23T03:40:31.953Z,24.53
2018-01-23T03:43:00.151Z,21.87
2018-01-23T03:45:29.126Z,24.07
2018-01-23T03:47:58.065Z,27.03
2018-01-23T03:50:26.249Z,29.70
2018-01-23T03:52:54.416Z,26.33
2018-01-23T03:55:22.590Z,27.47
2018-01-23T03:57:50.777Z,25.90
2018-01-23T04:00:19.012Z,27.00
2018-01-23T04:02:48.003Z,27.57
2018-01-23T04:05:16.986Z,27.10
2018-01-23T04:07:45.928Z,28.90
2018-01-23T04:10:14.100Z,25.23
2018-01-23T04:12:42.267Z,24.87
2018-01-23T04:15:10.434Z,28.13
2018-01-23T04:17:38.610Z,23.90
2018-01-23T04:20:06.790Z,23.37
2018-01-23T04:22:34.970Z,24.13
2018-01-23T04:25:03.208Z,21.17
2018-01-23T04:27:32.151Z,28.37
2018-01-23T04:30:00.329Z,27.37
2018-01-23T04:32:28.528Z,28.60
2018-01-23T04:34:56.719Z,26.20
2018-01-23T04:37:25.663Z,24.20
2018-01-23T04:39:53.824Z,23.70
2018-01-23T04:42:22.032Z,31.47
2018-01-23T04:44:50.984Z,30.07
2018-01-23T04:47:19.153Z,31.07
2018-01-23T06:11:45.004Z,30.50
2018-01-23T06:14:13.192Z,28.50
2018-01-23T06:16:42.160Z,29.50
2018-01-23T06:19:10.336Z,26.25
2018-01-23T06:21:38.573Z,27.87
2018-01-23T06:24:06.758Z,33.20
2018-01-23T06:26:34.960Z,30.17
2018-01-23T06:29:03.197Z,30.70
2018-01-23T06:31:31.361Z,29.20
2018-01-23T06:33:59.537Z,36.87
2018-01-23T06:36:27.724Z,25.97
2018-01-23T06:38:55.897Z,29.23
2018-01-23T06:41:24.067Z,33.50
2018-01-23T06:43:52.234Z,29.90
2018-01-23T06:46:20.404Z,33.87
2018-01-23T06:48:48.579Z,31.30
2018-01-23T06:51:16.777Z,29.97
2018-01-23T06:53:44.999Z,34.80
2018-01-23T06:56:13.217Z,30.43
2018-01-23T06:58:41.436Z,35.30
2018-01-23T07:01:09.600Z,33.47
2018-01-23T07:03:37.818Z,32.77
2018-01-23T07:06:06.822Z,38.40
2018-01-23T07:08:35.029Z,31.60
2018-01-23T07:11:03.208Z,31.27
2018-01-23T07:13:31.365Z,30.20
2018-01-23T07:15:59.589Z,29.20
2018-01-23T07:18:27.778Z,34.43
2018-01-23T07:20:56.790Z,33.33
2018-01-23T07:23:24.989Z,32.50
2018-01-23T07:25:53.216Z,31.00
2018-01-23T07:28:22.217Z,34.90
2018-01-23T07:30:51.160Z,35.07
2018-01-23T07:33:19.332Z,28.33
2018-01-23T07:35:47.534Z,31.80
2018-01-23T07:38:15.804Z,29.03
2018-01-23T07:40:44.011Z,32.07
2018-01-23T07:43:12.951Z,26.30
2018-01-23T07:45:41.141Z,32.93
2018-01-23T07:48:09.350Z,27.90
2018-01-23T07:50:38.338Z,27.97
2018-01-23T07:53:07.287Z,31.53
2018-01-23T07:55:35.477Z,31.80
2018-01-23T07:58:03.669Z,29.80
2018-01-23T08:00:31.850Z,29.33
2018-01-23T08:03:00.079Z,31.80
2018-01-23T08:05:28.307Z,29.80
2018-01-23T08:07:57.255Z,27.63
2018-01-23T08:10:25.489Z,30.53
2018-01-23T08:12:54.487Z,27.30
2018-01-23T08:15:23.445Z,29.97
2018-01-23T08:17:51.640Z,30.40
2018-01-23T08:20:20.605Z,32.70
2018-01-23T08:22:48.799Z,32.23
2018-01-23T08:25:16.961Z,27.70
2018-01-23T08:27:45.153Z,27.90
2018-01-23T08:30:14.110Z,34.40
2018-01-23T08:32:42.322Z,28.70
2018-01-23T08:35:11.281Z,30.03
2018-01-23T08:37:39.484Z,28.43
2018-01-23T08:40:07.684Z,37.03
2018-01-23T08:42:35.874Z,30.50
2018-01-23T08:45:04.164Z,27.60
2018-01-23T08:47:32.313Z,31.37
2018-01-23T08:50:01.251Z,41.30
2018-01-23T08:52:29.472Z,31.00
2018-01-23T08:54:58.421Z,28.17
2018-01-23T08:57:26.632Z,31.57
2018-01-23T08:59:55.605Z,26.70
2018-01-23T09:02:23.842Z,31.87
2018-01-23T09:04:52.034Z,27.27
2018-01-23T09:07:20.213Z,25.87
2018-01-23T09:09:49.146Z,32.87
2018-01-23T09:12:18.106Z,30.20
2018-01-23T09:14:46.288Z,26.30
2018-01-23T09:17:14.479Z,28.00
2018-01-23T09:19:42.685Z,32.40
2018-01-23T09:22:10.857Z,28.13
2018-01-23T09:24:39.046Z,34.27
2018-01-23T09:27:07.238Z,34.90
2018-01-23T09:29:36.181Z,36.33
2018-01-23T09:32:05.130Z,24.63
2018-01-23T09:34:33.320Z,25.67
2018-01-23T09:37:01.505Z,30.10
2018-01-23T09:39:29.690Z,29.10
2018-01-23T09:41:58.638Z,29.90
2018-01-23T09:44:26.801Z,33.40
2018-01-23T09:46:55.082Z,30.70
2018-01-23T09:49:23.237Z,33.47
2018-01-23T09:51:51.444Z,37.67
2018-01-23T09:54:19.610Z,26.77
2018-01-23T09:56:47.778Z,26.73
2018-01-23T09:59:15.976Z,31.07
2018-01-23T10:01:44.145Z,26.73
2018-01-23T10:04:12.318Z,27.30
2018-01-23T10:06:40.511Z,34.20
2018-01-23T10:09:08.699Z,30.77
2018-01-23T10:11:36.919Z,27.60
2018-01-23T10:14:05.102Z,30.63
2018-01-23T10:16:33.324Z,33.63
2018-01-23T10:19:01.490Z,33.67
2018-01-23T10:21:29.679Z,36.73
2018-01-23T10:23:58.621Z,29.20
2018-01-23T10:26:26.795Z,29.83
2018-01-23T10:28:54.968Z,28.73
2018-01-23T10:31:23.156Z,27.97
2018-01-23T10:33:51.334Z,33.50
2018-01-23T10:36:19.535Z,28.63
2018-01-23T10:38:47.701Z,26.37
2018-01-23T10:41:15.866Z,28.40
2018-01-23T10:43:44.068Z,33.40
2018-01-23T10:46:13.055Z,25.20
2018-01-23T10:48:41.242Z,24.50
2018-01-23T10:51:10.175Z,26.87
2018-01-23T10:53:38.344Z,25.87
2018-01-23T10:56:06.530Z,25.53
2018-01-23T10:58:34.697Z,28.20
2018-01-23T11:01:06.832Z,26.23
2018-01-23T11:03:35.798Z,31.10
2018-01-23T11:06:03.971Z,27.43
2018-01-23T11:08:32.171Z,23.77
2018-01-23T11:11:01.112Z,22.33
2018-01-23T11:13:29.277Z,22.00
2018-01-23T11:15:57.469Z,25.70
2018-01-23T11:18:25.655Z,23.20
2018-01-23T11:20:53.828Z,22.97
2018-01-23T11:23:22.005Z,25.83
2018-01-23T11:25:50.178Z,27.17
2018-01-23T11:28:18.358Z,26.20
2018-01-23T11:30:46.534Z,25.30
2018-01-23T11:33:14.715Z,25.40
2018-01-23T11:35:42.892Z,26.97
2018-01-23T11:38:11.068Z,26.73
2018-01-23T11:40:39.237Z,25.27
2018-01-23T11:43:07.423Z,23.97
2018-01-23T11:45:35.591Z,21.07
2018-01-23T11:48:03.783Z,23.37
2018-01-23T11:50:32.757Z,24.23
2018-01-23T11:53:00.939Z,24.23
2018-01-23T11:55:29.113Z,26.00
2018-01-23T11:57:57.278Z,23.57
2018-01-23T12:00:25.497Z,23.70
2018-01-23T12:02:53.657Z,24.73
2018-01-23T12:05:22.600Z,23.57
2018-01-23T12:07:50.864Z,23.23
2018-01-23T12:10:19.027Z,21.23
2018-01-23T12:12:47.209Z,24.97
2018-01-23T12:15:15.378Z,23.40
2018-01-23T12:17:43.544Z,22.97
2018-01-23T12:20:11.706Z,22.90
2018-01-23T12:22:39.896Z,20.57
2018-01-23T12:25:08.069Z,22.23
2018-01-23T12:27:36.248Z,24.37
2018-01-23T12:30:04.437Z,24.07
2018-01-23T12:32:33.430Z,23.33
2018-01-23T12:35:01.614Z,23.13
2018-01-23T12:37:29.789Z,23.77
2018-01-23T12:39:57.957Z,22.33
2018-01-23T12:42:26.125Z,22.50
2018-01-23T12:44:54.289Z,22.93
2018-01-23T12:47:22.566Z,22.10
2018-01-23T12:49:50.757Z,21.47
2018-01-23T12:52:18.941Z,22.00
2018-01-23T12:54:47.130Z,24.50
2018-01-23T12:57:15.293Z,22.20
2018-01-23T12:59:43.478Z,23.00
2018-01-23T13:02:11.658Z,22.60
2018-01-23T13:04:39.826Z,21.60
2018-01-23T13:07:07.997Z,21.73
2018-01-23T13:09:36.197Z,21.67
2018-01-23T13:12:05.145Z,21.40
2018-01-23T13:14:33.445Z,20.60
2018-01-23T13:17:03.278Z,21.20
2018-01-23T13:19:32.219Z,23.10
2018-01-23T13:22:00.389Z,22.17
2018-01-23T13:24:28.566Z,22.10
2018-01-23T13:26:56.740Z,23.43
2018-01-23T13:29:24.926Z,23.33
2018-01-23T13:31:53.090Z,24.30
2018-01-23T13:34:21.322Z,23.13
2018-01-23T13:36:50.250Z,23.17
2018-01-23T13:39:18.427Z,22.60
2018-01-23T13:41:46.603Z,23.73
2018-01-23T13:44:14.799Z,23.17
2018-01-23T13:46:42.968Z,22.00
2018-01-23T13:49:11.153Z,21.40
2018-01-23T13:51:39.331Z,21.43
2018-01-23T13:54:08.313Z,22.23
2018-01-23T13:56:36.488Z,21.70
2018-01-23T13:59:04.687Z,20.50
2018-01-23T14:01:32.867Z,19.77
2018-01-23T14:04:01.040Z,19.30
2018-01-23T14:06:29.214Z,19.23
2018-01-23T14:08:57.386Z,18.03
2018-01-23T14:11:25.557Z,16.70
2018-01-23T14:13:53.728Z,18.93
2018-01-23T14:16:21.953Z,20.63
2018-01-23T14:18:50.860Z,16.40
2018-01-23T14:21:19.040Z,18.33
2018-01-23T14:23:47.209Z,16.30
2018-01-23T14:26:15.392Z,21.30
2018-01-23T14:28:43.562Z,17.50
2018-01-23T14:31:11.745Z,15.57
2018-01-23T14:33:39.957Z,18.87
2018-01-23T14:36:08.141Z,24.97
2018-01-23T14:38:37.091Z,23.37
2018-01-23T14:41:05.253Z,23.03
2018-01-23T14:43:33.425Z,26.03
2018-01-23T14:46:01.596Z,21.53
2018-01-23T14:48:29.774Z,25.97
2018-01-23T14:50:57.947Z,27.00
2018-01-23T14:53:26.125Z,19.10
2018-01-23T14:55:54.293Z,20.17
2018-01-23T14:58:22.469Z,24.13
2018-01-23T15:00:50.643Z,16.77
2018-01-23T15:03:18.814Z,17.27
2018-01-23T15:05:46.990Z,17.37
2018-01-23T15:08:15.156Z,15.70
2018-01-23T15:10:43.315Z,18.10
2018-01-23T15:13:12.298Z,19.50
2018-01-23T15:15:41.239Z,19.33
2018-01-23T15:18:09.411Z,20.17
2018-01-23T15:20:37.587Z,24.93
2018-01-23T15:23:05.759Z,24.17
2018-01-23T15:25:33.937Z,20.50
2018-01-23T15:28:02.111Z,20.37
2018-01-23T15:30:30.291Z,23.93
2018-01-23T15:32:58.459Z,21.37
2018-01-23T15:35:26.688Z,28.37
2018-01-23T15:37:55.625Z,23.43
2018-01-23T15:40:23.796Z,21.23
2018-01-23T15:42:52.064Z,21.47
2018-01-23T15:45:20.226Z,23.50
2018-01-23T15:48:27.391Z,20.97
2018-01-23T15:50:56.050Z,29.23
2018-01-23T15:53:24.965Z,26.20
2018-01-23T15:55:53.953Z,29.30
2018-01-23T15:58:22.125Z,22.00
2018-01-23T16:00:50.286Z,23.27
2018-01-23T16:03:18.502Z,28.30
2018-01-23T16:05:47.437Z,24.83
2018-01-23T16:08:16.373Z,25.40
2018-01-23T16:10:44.554Z,22.90
2018-01-23T16:13:12.714Z,30.07
2018-01-23T16:15:40.881Z,27.43
2018-01-23T16:18:09.076Z,21.73
2018-01-23T16:20:37.235Z,22.27
2018-01-23T16:23:05.414Z,22.43
2018-01-23T16:25:33.602Z,23.07
2018-01-23T16:28:01.766Z,27.13
2018-01-23T16:30:29.971Z,31.87
2018-01-23T16:32:58.142Z,34.43
2018-01-23T16:35:26.324Z,26.07
2018-01-23T16:37:54.506Z,33.07
2018-01-23T16:40:22.678Z,26.20
2018-01-23T16:42:51.617Z,23.20
2018-01-23T16:45:19.826Z,32.60
2018-01-23T16:47:47.985Z,34.60
2018-01-23T16:50:16.157Z,34.20
2018-01-23T16:52:44.321Z,37.13
2018-01-23T16:55:12.492Z,31.47
2018-01-23T16:57:40.685Z,33.60
2018-01-23T17:00:08.845Z,35.03
2018-01-23T17:02:37.045Z,31.00
2018-01-23T17:05:05.296Z,35.23
2018-01-23T17:07:33.481Z,41.13
2018-01-23T17:10:01.733Z,34.50
2018-01-23T17:12:29.902Z,35.83
2018-01-23T17:14:58.057Z,30.00
2018-01-23T17:17:26.998Z,30.17
2018-01-23T17:19:55.174Z,27.80
2018-01-23T17:22:23.354Z,33.30
2018-01-23T17:24:51.616Z,30.63
2018-01-23T17:27:19.804Z,29.23
2018-01-23T17:29:47.968Z,29.27
2018-01-23T17:32:16.132Z,30.00
2018-01-23T17:34:44.416Z,31.00
2018-01-23T17:37:12.690Z,29.43
2018-01-23T17:39:40.867Z,34.23
2018-01-23T17:42:09.039Z,30.47
2018-01-23T17:44:37.225Z,32.23
2018-01-23T17:47:05.397Z,31.20
2018-01-23T17:49:33.563Z,28.60
2018-01-23T17:52:01.728Z,33.40
2018-01-23T17:54:29.918Z,30.37
2018-01-23T17:56:58.190Z,30.43
2018-01-23T17:59:26.361Z,29.40
2018-01-23T18:01:54.533Z,27.70
2018-01-23T18:04:22.689Z,43.73
2018-01-23T18:06:50.857Z,36.23
2018-01-23T18:09:19.801Z,29.30
2018-01-23T18:11:47.976Z,27.17
2018-01-23T18:14:16.162Z,30.07
2018-01-23T18:16:44.345Z,35.30
2018-01-23T18:19:12.583Z,32.07
2018-01-23T18:21:40.803Z,33.33
2018-01-23T18:24:08.977Z,30.73
2018-01-23T18:26:37.249Z,28.60
2018-01-23T18:29:05.411Z,32.20
2018-01-23T18:31:33.570Z,33.30
2018-01-23T18:34:01.729Z,31.53
2018-01-23T18:36:29.902Z,37.43
2018-01-23T18:38:58.064Z,33.13
2018-01-23T18:41:26.238Z,27.90
2018-01-23T18:43:54.438Z,34.60
2018-01-23T18:46:22.703Z,32.33
2018-01-23T18:48:50.887Z,34.83
2018-01-23T18:51:19.066Z,33.63
2018-01-23T18:53:47.231Z,35.00
2018-01-23T18:56:15.417Z,27.50
2018-01-23T18:58:43.587Z,29.97
2018-01-23T19:01:11.780Z,36.70
2018-01-23T19:03:39.958Z,30.50
2018-01-23T19:06:08.142Z,29.67
2018-01-23T19:08:36.309Z,35.13
2018-01-23T19:11:04.485Z,41.73
2018-01-23T19:13:32.664Z,34.10
2018-01-23T19:16:00.848Z,35.33
2018-01-23T19:18:29.022Z,31.87
2018-01-23T19:20:57.963Z,30.50
2018-01-23T19:23:26.136Z,30.47
2018-01-23T19:25:54.327Z,30.20
2018-01-23T19:28:22.498Z,31.67
2018-01-23T19:30:50.745Z,28.23
2018-01-23T19:33:18.938Z,30.10
2018-01-23T19:35:47.236Z,26.67
2018-01-23T19:38:15.706Z,30.80
2018-01-23T19:40:44.197Z,32.10
2018-01-23T19:43:13.278Z,26.00
2018-01-23T19:45:41.461Z,32.70
2018-01-23T19:48:09.905Z,28.90
2018-01-23T19:50:38.389Z,35.87
2018-01-23T19:53:07.579Z,24.90
2018-01-23T19:55:36.069Z,23.20
2018-01-23T19:58:04.294Z,27.50
2018-01-23T20:00:32.809Z,27.13
2018-01-23T20:03:01.307Z,26.33
2018-01-23T20:05:29.799Z,26.80
2018-01-23T20:07:58.281Z,24.23
2018-01-23T20:10:26.756Z,23.80
2018-01-23T20:12:55.293Z,30.00
2018-01-23T20:15:23.833Z,23.67
2018-01-23T20:17:52.049Z,27.60
2018-01-23T20:20:20.500Z,24.30
2018-01-23T20:22:48.719Z,26.73
2018-01-23T20:25:16.920Z,25.90
2018-01-23T20:27:45.855Z,24.20
2018-01-23T20:30:14.252Z,24.37
2018-01-23T20:32:43.320Z,25.17
2018-01-23T20:35:11.495Z,30.37
2018-01-23T20:37:39.721Z,28.70
2018-01-23T20:40:08.678Z,28.97
2018-01-23T20:42:36.842Z,42.40
2018-01-23T20:45:05.028Z,69.33
2018-01-23T20:47:33.283Z,49.30
2018-01-23T20:50:01.452Z,29.10
2018-01-23T20:52:29.631Z,35.60
2018-01-23T20:54:57.810Z,37.30
2018-01-23T20:57:25.986Z,28.63
2018-01-23T20:59:54.189Z,26.57
2018-01-23T21:02:22.431Z,28.33
2018-01-23T21:04:50.600Z,24.70
2018-01-23T21:07:18.789Z,32.13
2018-01-23T21:09:46.970Z,25.73
2018-01-23T21:12:15.149Z,26.90
2018-01-23T21:14:43.318Z,27.83
2018-01-23T21:17:11.587Z,28.40
2018-01-23T21:19:39.754Z,27.70
2018-01-23T21:22:07.925Z,31.70
2018-01-23T21:24:36.096Z,29.00
2018-01-23T21:27:04.294Z,29.63
2018-01-23T21:29:32.467Z,33.20
2018-01-23T21:32:00.648Z,29.40
2018-01-23T21:34:28.825Z,28.70
2018-01-23T21:36:56.993Z,27.13
2018-01-23T21:39:25.166Z,24.07
2018-01-23T21:41:53.335Z,25.87
2018-01-23T21:44:21.521Z,24.10
2018-01-23T21:46:49.784Z,25.63
2018-01-23T21:49:17.974Z,22.60
2018-01-23T21:51:46.155Z,23.30
2018-01-23T21:54:14.343Z,25.77
2018-01-23T21:56:42.505Z,22.97
2018-01-23T21:59:10.763Z,25.63
2018-01-23T22:01:38.961Z,28.80
2018-01-23T22:04:07.146Z,50.73
2018-01-23T22:06:35.336Z,37.00
2018-01-23T22:09:04.370Z,24.50
2018-01-23T22:11:32.553Z,26.90
2018-01-23T22:14:00.727Z,26.17
2018-01-23T22:16:28.914Z,24.93
2018-01-23T22:18:57.086Z,40.77
2018-01-23T22:21:25.288Z,42.17
2018-01-23T22:23:53.471Z,34.30
2018-01-23T22:26:21.643Z,45.00
2018-01-23T22:28:49.808Z,28.93
2018-01-23T22:31:18.001Z,27.07
2018-01-23T22:33:46.196Z,28.47
2018-01-23T22:36:14.376Z,24.60
2018-01-23T22:38:42.565Z,27.67
2018-01-23T22:41:10.750Z,24.03
2018-01-23T22:43:38.923Z,21.23
2018-01-23T22:46:07.135Z,42.50
2018-01-23T22:48:35.317Z,29.37
2018-01-23T22:51:03.493Z,28.77
2018-01-23T22:53:31.723Z,25.03
2018-01-23T22:55:59.912Z,25.57
2018-01-23T22:58:28.086Z,21.93
2018-01-23T23:00:56.257Z,25.97
2018-01-23T23:03:24.437Z,26.37
2018-01-23T23:05:52.603Z,28.07
2018-01-23T23:08:20.782Z,22.27
2018-01-23T23:10:48.951Z,31.23
2018-01-23T23:13:17.122Z,22.20
2018-01-23T23:15:45.290Z,25.70
2018-01-23T23:18:13.503Z,23.00
2018-01-23T23:20:41.707Z,23.63
2018-01-23T23:23:10.661Z,23.87
2018-01-23T23:25:38.887Z,20.60
2018-01-23T23:28:07.037Z,20.13
2018-01-23T23:30:35.202Z,16.67
2018-01-23T23:33:03.397Z,24.17
2018-01-23T23:35:32.328Z,20.73
2018-01-23T23:38:00.495Z,18.97
2018-01-23T23:40:28.687Z,23.03
2018-01-23T23:42:56.848Z,20.67
2018-01-23T23:45:25.007Z,20.30
2018-01-23T23:47:53.199Z,17.53
2018-01-23T23:50:21.372Z,20.73
2018-01-23T23:52:49.570Z,18.57
2018-01-23T23:55:17.746Z,19.20
2018-01-23T23:57:45.909Z,20.17
